sensor_id;sensor_type;location;lat;lon;timestamp;P1;durP1;ratioP1;P2;durP2;ratioP2
4051;SDS011;2040;50.924;11.604;2022-10-01T00:00:24;9.70;;;5.07;;
4051;SDS011;2040;50.924;11.604;2022-10-01T00:02:53;8.10;;;4.73;;
4051;SDS011;2040;50.924;11.604;2022-10-01T00:05:19;10.50;;;4.90;;
4051;SDS011;2040;50.924;11.604;2022-10-01T00:07:46;6.43;;;4.60;;
4051;SDS011;2040;50.924;11.604;2022-10-01T00:10:12;6.90;;;4.83;;
4051;SDS011;2040;50.924;11.604;2022-10-01T00:12:41;8.97;;;5.23;;
4051;SDS011;2040;50.924;11.604;2022-10-01T00:15:10;7.57;;;5.27;;
4051;SDS011;2040;50.924;11.604;2022-10-01T00:17:37;8.43;;;4.03;;
4051;SDS011;2040;50.924;11.604;2022-10-01T00:20:03;7.20;;;4.10;;
4051;SDS011;2040;50.924;11.604;2022-10-01T00:22:30;10.43;;;6.93;;
4051;SDS011;2040;50.924;11.604;2022-10-01T00:24:57;9.70;;;5.63;;
4051;SDS011;2040;50.924;11.604;2022-10-01T00:27:26;11.93;;;4.40;;
4051;SDS011;2040;50.924;11.604;2022-10-01T00:29:52;12.97;;;4.77;;
4051;SDS011;2040;50.924;11.604;2022-10-01T00:32:18;12.37;;;4.83;;
4051;SDS011;2040;50.924;11.604;2022-10-01T00:34:46;7.60;;;4.63;;
4051;SDS011;2040;50.924;11.604;2022-10-01T00:37:14;7.00;;;4.10;;
4051;SDS011;2040;50.924;11.604;2022-10-01T00:39:42;11.00;;;4.23;;
4051;SDS011;2040;50.924;11.604;2022-10-01T00:42:21;9.00;;;4.90;;
4051;SDS011;2040;50.924;11.604;2022-10-01T00:44:48;6.40;;;4.20;;
4051;SDS011;2040;50.924;11.604;2022-10-01T00:47:20;6.00;;;4.30;;
4051;SDS011;2040;50.924;11.604;2022-10-01T00:53:02;12.40;;;4.53;;
4051;SDS011;2040;50.924;11.604;2022-10-01T00:55:38;7.13;;;4.10;;
4051;SDS011;2040;50.924;11.604;2022-10-01T00:58:07;6.23;;;4.10;;
4051;SDS011;2040;50.924;11.604;2022-10-01T01:00:34;11.90;;;4.77;;
4051;SDS011;2040;50.924;11.604;2022-10-01T01:03:01;5.80;;;4.07;;
4051;SDS011;2040;50.924;11.604;2022-10-01T01:05:28;6.83;;;4.43;;
4051;SDS011;2040;50.924;11.604;2022-10-01T01:07:54;5.43;;;3.50;;
4051;SDS011;2040;50.924;11.604;2022-10-01T01:10:33;8.73;;;4.47;;
4051;SDS011;2040;50.924;11.604;2022-10-01T01:13:36;7.40;;;4.60;;
4051;SDS011;2040;50.924;11.604;2022-10-01T01:18:36;10.07;;;4.20;;
4051;SDS011;2040;50.924;11.604;2022-10-01T01:26:27;6.70;;;4.07;;
4051;SDS011;2040;50.924;11.604;2022-10-01T01:28:59;7.90;;;3.97;;
4051;SDS011;2040;50.924;11.604;2022-10-01T01:31:31;4.20;;;3.40;;
4051;SDS011;2040;50.924;11.604;2022-10-01T01:34:01;5.47;;;3.90;;
4051;SDS011;2040;50.924;11.604;2022-10-01T01:36:36;6.83;;;3.60;;
4051;SDS011;2040;50.924;11.604;2022-10-01T01:39:04;8.07;;;3.93;;
4051;SDS011;2040;50.924;11.604;2022-10-01T01:41:34;6.00;;;4.27;;
4051;SDS011;2040;50.924;11.604;2022-10-01T01:44:03;5.43;;;4.03;;
4051;SDS011;2040;50.924;11.604;2022-10-01T01:46:32;5.20;;;3.83;;
4051;SDS011;2040;50.924;11.604;2022-10-01T01:49:00;5.00;;;3.70;;
4051;SDS011;2040;50.924;11.604;2022-10-01T01:53:55;5.13;;;3.27;;
4051;SDS011;2040;50.924;11.604;2022-10-01T01:56:21;5.30;;;4.33;;
4051;SDS011;2040;50.924;11.604;2022-10-01T01:58:47;5.20;;;3.80;;
4051;SDS011;2040;50.924;11.604;2022-10-01T02:04:05;6.13;;;3.37;;
4051;SDS011;2040;50.924;11.604;2022-10-01T02:07:08;4.70;;;3.33;;
4051;SDS011;2040;50.924;11.604;2022-10-01T02:18:05;6.03;;;3.90;;
4051;SDS011;2040;50.924;11.604;2022-10-01T02:20:38;12.60;;;3.97;;
4051;SDS011;2040;50.924;11.604;2022-10-01T02:23:21;5.50;;;3.73;;
4051;SDS011;2040;50.924;11.604;2022-10-01T02:25:58;6.40;;;4.40;;
4051;SDS011;2040;50.924;11.604;2022-10-01T02:28:28;5.50;;;4.00;;
4051;SDS011;2040;50.924;11.604;2022-10-01T02:30:57;4.20;;;3.80;;
4051;SDS011;2040;50.924;11.604;2022-10-01T02:33:28;9.27;;;3.97;;
4051;SDS011;2040;50.924;11.604;2022-10-01T02:35:55;6.30;;;4.30;;
4051;SDS011;2040;50.924;11.604;2022-10-01T02:38:24;8.67;;;4.80;;
4051;SDS011;2040;50.924;11.604;2022-10-01T02:40:53;8.10;;;5.13;;
4051;SDS011;2040;50.924;11.604;2022-10-01T02:43:26;8.10;;;4.97;;
4051;SDS011;2040;50.924;11.604;2022-10-01T02:46:02;9.67;;;4.70;;
4051;SDS011;2040;50.924;11.604;2022-10-01T02:48:38;7.43;;;4.90;;
4051;SDS011;2040;50.924;11.604;2022-10-01T02:51:09;8.23;;;4.90;;
4051;SDS011;2040;50.924;11.604;2022-10-01T02:53:47;9.00;;;5.13;;
4051;SDS011;2040;50.924;11.604;2022-10-01T02:56:16;8.07;;;5.03;;
4051;SDS011;2040;50.924;11.604;2022-10-01T02:59:05;8.03;;;6.30;;
4051;SDS011;2040;50.924;11.604;2022-10-01T03:01:32;7.17;;;5.00;;
4051;SDS011;2040;50.924;11.604;2022-10-01T03:03:58;15.80;;;4.93;;
4051;SDS011;2040;50.924;11.604;2022-10-01T03:06:24;5.53;;;4.17;;
4051;SDS011;2040;50.924;11.604;2022-10-01T03:08:49;8.07;;;5.40;;
4051;SDS011;2040;50.924;11.604;2022-10-01T03:11:15;6.17;;;4.20;;
4051;SDS011;2040;50.924;11.604;2022-10-01T03:13:41;6.77;;;4.90;;
4051;SDS011;2040;50.924;11.604;2022-10-01T03:16:07;5.97;;;4.53;;
4051;SDS011;2040;50.924;11.604;2022-10-01T03:18:33;7.90;;;4.70;;
4051;SDS011;2040;50.924;11.604;2022-10-01T03:20:58;8.00;;;3.80;;
4051;SDS011;2040;50.924;11.604;2022-10-01T03:23:24;7.87;;;4.83;;
4051;SDS011;2040;50.924;11.604;2022-10-01T03:25:49;10.23;;;4.97;;
4051;SDS011;2040;50.924;11.604;2022-10-01T03:28:15;8.43;;;5.10;;
4051;SDS011;2040;50.924;11.604;2022-10-01T03:30:41;4.10;;;3.70;;
4051;SDS011;2040;50.924;11.604;2022-10-01T03:33:06;7.33;;;5.00;;
4051;SDS011;2040;50.924;11.604;2022-10-01T03:35:32;6.50;;;5.07;;
4051;SDS011;2040;50.924;11.604;2022-10-01T03:37:57;6.00;;;4.13;;
4051;SDS011;2040;50.924;11.604;2022-10-01T03:40:23;4.80;;;4.07;;
4051;SDS011;2040;50.924;11.604;2022-10-01T03:42:49;7.43;;;4.40;;
4051;SDS011;2040;50.924;11.604;2022-10-01T03:45:15;14.00;;;5.40;;
4051;SDS011;2040;50.924;11.604;2022-10-01T03:47:40;10.63;;;5.60;;
4051;SDS011;2040;50.924;11.604;2022-10-01T03:50:06;10.17;;;5.93;;
4051;SDS011;2040;50.924;11.604;2022-10-01T03:52:32;8.17;;;5.63;;
4051;SDS011;2040;50.924;11.604;2022-10-01T03:54:58;7.50;;;5.40;;
4051;SDS011;2040;50.924;11.604;2022-10-01T03:57:24;6.63;;;4.20;;
4051;SDS011;2040;50.924;11.604;2022-10-01T03:59:50;7.23;;;4.60;;
4051;SDS011;2040;50.924;11.604;2022-10-01T04:02:15;9.70;;;4.77;;
4051;SDS011;2040;50.924;11.604;2022-10-01T04:04:41;5.37;;;3.97;;
4051;SDS011;2040;50.924;11.604;2022-10-01T04:07:07;9.00;;;4.93;;
4051;SDS011;2040;50.924;11.604;2022-10-01T04:09:32;6.73;;;5.00;;
4051;SDS011;2040;50.924;11.604;2022-10-01T04:11:58;10.27;;;5.20;;
4051;SDS011;2040;50.924;11.604;2022-10-01T04:14:24;7.97;;;5.00;;
4051;SDS011;2040;50.924;11.604;2022-10-01T04:16:50;5.20;;;3.93;;
4051;SDS011;2040;50.924;11.604;2022-10-01T04:19:16;7.17;;;5.20;;
4051;SDS011;2040;50.924;11.604;2022-10-01T04:21:42;10.57;;;5.07;;
4051;SDS011;2040;50.924;11.604;2022-10-01T04:24:08;9.23;;;4.90;;
4051;SDS011;2040;50.924;11.604;2022-10-01T04:26:33;8.37;;;5.53;;
4051;SDS011;2040;50.924;11.604;2022-10-01T04:28:59;10.70;;;6.10;;
4051;SDS011;2040;50.924;11.604;2022-10-01T04:31:25;9.67;;;5.80;;
4051;SDS011;2040;50.924;11.604;2022-10-01T04:33:54;13.40;;;8.13;;
4051;SDS011;2040;50.924;11.604;2022-10-01T04:36:21;14.10;;;7.77;;
4051;SDS011;2040;50.924;11.604;2022-10-01T04:38:51;24.73;;;11.63;;
4051;SDS011;2040;50.924;11.604;2022-10-01T04:41:18;32.00;;;12.30;;
4051;SDS011;2040;50.924;11.604;2022-10-01T04:43:44;21.60;;;9.10;;
4051;SDS011;2040;50.924;11.604;2022-10-01T04:46:10;9.97;;;6.60;;
4051;SDS011;2040;50.924;11.604;2022-10-01T04:48:36;17.40;;;9.40;;
4051;SDS011;2040;50.924;11.604;2022-10-01T04:51:01;15.70;;;7.60;;
4051;SDS011;2040;50.924;11.604;2022-10-01T04:53:27;26.13;;;8.47;;
4051;SDS011;2040;50.924;11.604;2022-10-01T04:55:53;14.70;;;7.80;;
4051;SDS011;2040;50.924;11.604;2022-10-01T04:58:19;19.20;;;8.07;;
4051;SDS011;2040;50.924;11.604;2022-10-01T05:00:44;12.07;;;7.70;;
4051;SDS011;2040;50.924;11.604;2022-10-01T05:03:10;13.83;;;7.90;;
4051;SDS011;2040;50.924;11.604;2022-10-01T05:05:35;18.63;;;9.00;;
4051;SDS011;2040;50.924;11.604;2022-10-01T05:08:01;44.57;;;18.00;;
4051;SDS011;2040;50.924;11.604;2022-10-01T05:10:27;21.57;;;8.97;;
4051;SDS011;2040;50.924;11.604;2022-10-01T05:12:53;15.93;;;8.50;;
4051;SDS011;2040;50.924;11.604;2022-10-01T05:15:19;11.40;;;6.83;;
4051;SDS011;2040;50.924;11.604;2022-10-01T05:17:45;14.33;;;8.10;;
4051;SDS011;2040;50.924;11.604;2022-10-01T05:20:15;16.70;;;7.83;;
4051;SDS011;2040;50.924;11.604;2022-10-01T05:22:43;15.70;;;6.70;;
4051;SDS011;2040;50.924;11.604;2022-10-01T05:25:09;12.80;;;7.60;;
4051;SDS011;2040;50.924;11.604;2022-10-01T05:27:35;12.57;;;7.53;;
4051;SDS011;2040;50.924;11.604;2022-10-01T05:30:04;13.77;;;7.87;;
4051;SDS011;2040;50.924;11.604;2022-10-01T05:32:32;13.90;;;8.43;;
4051;SDS011;2040;50.924;11.604;2022-10-01T05:34:58;14.00;;;7.23;;
4051;SDS011;2040;50.924;11.604;2022-10-01T05:37:24;11.93;;;7.23;;
4051;SDS011;2040;50.924;11.604;2022-10-01T05:39:50;12.70;;;6.30;;
4051;SDS011;2040;50.924;11.604;2022-10-01T05:42:15;10.40;;;6.40;;
4051;SDS011;2040;50.924;11.604;2022-10-01T05:44:41;9.67;;;6.47;;
4051;SDS011;2040;50.924;11.604;2022-10-01T05:47:10;9.23;;;6.63;;
4051;SDS011;2040;50.924;11.604;2022-10-01T05:49:37;11.80;;;7.40;;
4051;SDS011;2040;50.924;11.604;2022-10-01T05:52:07;9.43;;;6.23;;
4051;SDS011;2040;50.924;11.604;2022-10-01T05:54:34;10.57;;;6.27;;
4051;SDS011;2040;50.924;11.604;2022-10-01T05:57:00;11.90;;;7.00;;
4051;SDS011;2040;50.924;11.604;2022-10-01T05:59:26;21.27;;;9.03;;
4051;SDS011;2040;50.924;11.604;2022-10-01T06:01:51;13.67;;;8.10;;
4051;SDS011;2040;50.924;11.604;2022-10-01T06:04:17;12.40;;;7.13;;
4051;SDS011;2040;50.924;11.604;2022-10-01T06:06:43;12.10;;;7.00;;
4051;SDS011;2040;50.924;11.604;2022-10-01T06:09:09;9.00;;;6.33;;
4051;SDS011;2040;50.924;11.604;2022-10-01T06:11:35;10.00;;;6.83;;
4051;SDS011;2040;50.924;11.604;2022-10-01T06:14:00;9.40;;;6.00;;
4051;SDS011;2040;50.924;11.604;2022-10-01T06:16:26;8.57;;;5.73;;
4051;SDS011;2040;50.924;11.604;2022-10-01T06:18:52;9.63;;;6.33;;
4051;SDS011;2040;50.924;11.604;2022-10-01T06:21:21;12.83;;;6.53;;
4051;SDS011;2040;50.924;11.604;2022-10-01T06:23:48;12.07;;;5.97;;
4051;SDS011;2040;50.924;11.604;2022-10-01T06:26:15;11.07;;;6.20;;
4051;SDS011;2040;50.924;11.604;2022-10-01T06:28:42;11.57;;;6.23;;
4051;SDS011;2040;50.924;11.604;2022-10-01T06:31:08;10.00;;;5.60;;
4051;SDS011;2040;50.924;11.604;2022-10-01T06:33:33;10.00;;;5.93;;
4051;SDS011;2040;50.924;11.604;2022-10-01T06:35:59;9.50;;;6.20;;
4051;SDS011;2040;50.924;11.604;2022-10-01T06:38:25;11.03;;;5.43;;
4051;SDS011;2040;50.924;11.604;2022-10-01T06:43:21;8.27;;;6.13;;
4051;SDS011;2040;50.924;11.604;2022-10-01T06:45:47;12.33;;;6.10;;
4051;SDS011;2040;50.924;11.604;2022-10-01T06:48:14;9.07;;;5.70;;
4051;SDS011;2040;50.924;11.604;2022-10-01T06:50:44;8.83;;;5.50;;
4051;SDS011;2040;50.924;11.604;2022-10-01T06:53:11;12.20;;;6.57;;
4051;SDS011;2040;50.924;11.604;2022-10-01T06:55:38;11.97;;;8.03;;
4051;SDS011;2040;50.924;11.604;2022-10-01T06:58:12;7.53;;;5.13;;
4051;SDS011;2040;50.924;11.604;2022-10-01T07:00:39;8.57;;;5.73;;
4051;SDS011;2040;50.924;11.604;2022-10-01T07:03:06;9.43;;;5.73;;
4051;SDS011;2040;50.924;11.604;2022-10-01T07:05:35;9.07;;;4.90;;
4051;SDS011;2040;50.924;11.604;2022-10-01T07:08:05;10.30;;;5.70;;
4051;SDS011;2040;50.924;11.604;2022-10-01T07:10:32;8.33;;;5.30;;
4051;SDS011;2040;50.924;11.604;2022-10-01T07:13:08;11.13;;;6.77;;
4051;SDS011;2040;50.924;11.604;2022-10-01T07:15:42;6.80;;;5.30;;
4051;SDS011;2040;50.924;11.604;2022-10-01T07:18:09;9.90;;;5.80;;
4051;SDS011;2040;50.924;11.604;2022-10-01T07:20:35;7.50;;;5.47;;
4051;SDS011;2040;50.924;11.604;2022-10-01T07:23:03;7.97;;;4.57;;
4051;SDS011;2040;50.924;11.604;2022-10-01T07:25:30;8.27;;;4.70;;
4051;SDS011;2040;50.924;11.604;2022-10-01T07:27:57;7.70;;;4.80;;
4051;SDS011;2040;50.924;11.604;2022-10-01T07:30:24;5.03;;;4.07;;
4051;SDS011;2040;50.924;11.604;2022-10-01T07:32:50;10.83;;;4.77;;
4051;SDS011;2040;50.924;11.604;2022-10-01T07:35:16;4.40;;;3.20;;
4051;SDS011;2040;50.924;11.604;2022-10-01T07:37:45;10.30;;;4.03;;
4051;SDS011;2040;50.924;11.604;2022-10-01T07:40:11;4.47;;;3.67;;
4051;SDS011;2040;50.924;11.604;2022-10-01T07:42:37;3.73;;;3.20;;
4051;SDS011;2040;50.924;11.604;2022-10-01T07:45:03;8.80;;;3.63;;
4051;SDS011;2040;50.924;11.604;2022-10-01T07:47:30;4.00;;;2.83;;
4051;SDS011;2040;50.924;11.604;2022-10-01T07:49:56;4.43;;;2.70;;
4051;SDS011;2040;50.924;11.604;2022-10-01T07:52:22;4.63;;;2.90;;
4051;SDS011;2040;50.924;11.604;2022-10-01T07:54:47;6.40;;;2.50;;
4051;SDS011;2040;50.924;11.604;2022-10-01T07:57:13;3.33;;;2.50;;
4051;SDS011;2040;50.924;11.604;2022-10-01T07:59:39;9.77;;;2.37;;
4051;SDS011;2040;50.924;11.604;2022-10-01T08:02:05;3.33;;;2.20;;
4051;SDS011;2040;50.924;11.604;2022-10-01T08:04:37;2.90;;;2.60;;
4051;SDS011;2040;50.924;11.604;2022-10-01T08:07:21;3.70;;;2.97;;
4051;SDS011;2040;50.924;11.604;2022-10-01T08:09:47;2.27;;;2.07;;
4051;SDS011;2040;50.924;11.604;2022-10-01T08:12:13;2.23;;;1.97;;
4051;SDS011;2040;50.924;11.604;2022-10-01T08:14:39;7.60;;;2.10;;
4051;SDS011;2040;50.924;11.604;2022-10-01T08:17:05;4.67;;;1.43;;
4051;SDS011;2040;50.924;11.604;2022-10-01T08:19:31;1.57;;;1.27;;
4051;SDS011;2040;50.924;11.604;2022-10-01T08:21:58;2.13;;;1.50;;
4051;SDS011;2040;50.924;11.604;2022-10-01T08:24:23;1.90;;;1.20;;
4051;SDS011;2040;50.924;11.604;2022-10-01T08:26:52;3.40;;;1.60;;
4051;SDS011;2040;50.924;11.604;2022-10-01T08:29:21;1.70;;;1.20;;
4051;SDS011;2040;50.924;11.604;2022-10-01T08:31:47;1.57;;;1.33;;
4051;SDS011;2040;50.924;11.604;2022-10-01T08:34:14;1.67;;;1.57;;
4051;SDS011;2040;50.924;11.604;2022-10-01T08:36:39;4.63;;;1.50;;
4051;SDS011;2040;50.924;11.604;2022-10-01T08:39:05;1.50;;;1.40;;
4051;SDS011;2040;50.924;11.604;2022-10-01T08:44:31;3.60;;;1.50;;
4051;SDS011;2040;50.924;11.604;2022-10-01T08:47:09;3.50;;;1.63;;
4051;SDS011;2040;50.924;11.604;2022-10-01T08:49:41;3.97;;;1.47;;
4051;SDS011;2040;50.924;11.604;2022-10-01T08:52:19;2.07;;;1.53;;
4051;SDS011;2040;50.924;11.604;2022-10-01T08:54:56;1.77;;;1.67;;
4051;SDS011;2040;50.924;11.604;2022-10-01T08:57:25;2.73;;;1.70;;
4051;SDS011;2040;50.924;11.604;2022-10-01T08:59:57;1.93;;;1.50;;
4051;SDS011;2040;50.924;11.604;2022-10-01T09:04:56;1.30;;;1.00;;
4051;SDS011;2040;50.924;11.604;2022-10-01T09:07:59;2.73;;;1.80;;
4051;SDS011;2040;50.924;11.604;2022-10-01T09:10:52;2.47;;;1.40;;
4051;SDS011;2040;50.924;11.604;2022-10-01T09:18:46;3.30;;;1.60;;
4051;SDS011;2040;50.924;11.604;2022-10-01T09:21:18;2.43;;;1.67;;
4051;SDS011;2040;50.924;11.604;2022-10-01T09:26:26;2.47;;;1.53;;
4051;SDS011;2040;50.924;11.604;2022-10-01T09:28:51;1.43;;;1.10;;
4051;SDS011;2040;50.924;11.604;2022-10-01T09:34:04;2.10;;;1.63;;
4051;SDS011;2040;50.924;11.604;2022-10-01T09:36:40;2.50;;;1.47;;
4051;SDS011;2040;50.924;11.604;2022-10-01T09:39:16;3.53;;;1.23;;
4051;SDS011;2040;50.924;11.604;2022-10-01T09:41:50;1.23;;;1.10;;
4051;SDS011;2040;50.924;11.604;2022-10-01T09:44:24;2.53;;;1.37;;
4051;SDS011;2040;50.924;11.604;2022-10-01T09:46:52;1.17;;;1.03;;
4051;SDS011;2040;50.924;11.604;2022-10-01T09:49:28;1.70;;;1.23;;
4051;SDS011;2040;50.924;11.604;2022-10-01T09:52:15;1.13;;;1.03;;
4051;SDS011;2040;50.924;11.604;2022-10-01T09:55:00;1.20;;;1.13;;
4051;SDS011;2040;50.924;11.604;2022-10-01T09:57:45;1.73;;;1.27;;
4051;SDS011;2040;50.924;11.604;2022-10-01T10:00:17;1.60;;;1.30;;
4051;SDS011;2040;50.924;11.604;2022-10-01T10:02:49;1.30;;;1.20;;
4051;SDS011;2040;50.924;11.604;2022-10-01T10:05:17;1.17;;;1.07;;
4051;SDS011;2040;50.924;11.604;2022-10-01T10:07:51;1.67;;;1.07;;
4051;SDS011;2040;50.924;11.604;2022-10-01T10:10:51;0.90;;;0.90;;
4051;SDS011;2040;50.924;11.604;2022-10-01T10:13:29;0.90;;;0.90;;
4051;SDS011;2040;50.924;11.604;2022-10-01T10:15:59;0.80;;;0.80;;
4051;SDS011;2040;50.924;11.604;2022-10-01T10:18:35;0.80;;;0.70;;
4051;SDS011;2040;50.924;11.604;2022-10-01T10:21:15;0.80;;;0.80;;
4051;SDS011;2040;50.924;11.604;2022-10-01T10:23:57;0.80;;;0.80;;
4051;SDS011;2040;50.924;11.604;2022-10-01T10:26:34;0.80;;;0.80;;
4051;SDS011;2040;50.924;11.604;2022-10-01T10:29:07;3.37;;;1.23;;
4051;SDS011;2040;50.924;11.604;2022-10-01T10:31:48;1.03;;;0.90;;
4051;SDS011;2040;50.924;11.604;2022-10-01T10:34:28;0.70;;;0.70;;
4051;SDS011;2040;50.924;11.604;2022-10-01T10:37:01;0.80;;;0.80;;
4051;SDS011;2040;50.924;11.604;2022-10-01T10:39:30;0.93;;;0.83;;
4051;SDS011;2040;50.924;11.604;2022-10-01T10:41:59;1.00;;;0.90;;
4051;SDS011;2040;50.924;11.604;2022-10-01T10:44:29;2.77;;;1.00;;
4051;SDS011;2040;50.924;11.604;2022-10-01T10:47:00;0.80;;;0.80;;
4051;SDS011;2040;50.924;11.604;2022-10-01T10:49:30;1.00;;;0.90;;
4051;SDS011;2040;50.924;11.604;2022-10-01T10:51:59;7.80;;;1.13;;
4051;SDS011;2040;50.924;11.604;2022-10-01T10:57:01;1.77;;;0.70;;
4051;SDS011;2040;50.924;11.604;2022-10-01T10:59:38;1.30;;;1.00;;
4051;SDS011;2040;50.924;11.604;2022-10-01T11:02:04;0.70;;;0.60;;
4051;SDS011;2040;50.924;11.604;2022-10-01T11:07:05;0.87;;;0.67;;
4051;SDS011;2040;50.924;11.604;2022-10-01T11:09:35;0.83;;;0.80;;
4051;SDS011;2040;50.924;11.604;2022-10-01T11:26:18;0.70;;;0.70;;
4051;SDS011;2040;50.924;11.604;2022-10-01T11:31:46;0.70;;;0.70;;
4051;SDS011;2040;50.924;11.604;2022-10-01T11:34:33;0.80;;;0.80;;
4051;SDS011;2040;50.924;11.604;2022-10-01T11:37:32;1.17;;;0.97;;
4051;SDS011;2040;50.924;11.604;2022-10-01T11:42:54;0.53;;;0.53;;
4051;SDS011;2040;50.924;11.604;2022-10-01T11:45:27;1.00;;;1.00;;
4051;SDS011;2040;50.924;11.604;2022-10-01T11:48:00;0.60;;;0.60;;
4051;SDS011;2040;50.924;11.604;2022-10-01T11:50:38;2.73;;;0.93;;
4051;SDS011;2040;50.924;11.604;2022-10-01T11:53:11;0.60;;;0.60;;
4051;SDS011;2040;50.924;11.604;2022-10-01T11:59:05;0.70;;;0.70;;
4051;SDS011;2040;50.924;11.604;2022-10-01T12:01:46;1.17;;;0.63;;
4051;SDS011;2040;50.924;11.604;2022-10-01T12:04:38;0.80;;;0.67;;
4051;SDS011;2040;50.924;11.604;2022-10-01T12:10:18;2.53;;;0.57;;
4051;SDS011;2040;50.924;11.604;2022-10-01T12:21:41;1.57;;;0.63;;
4051;SDS011;2040;50.924;11.604;2022-10-01T12:24:15;2.40;;;0.70;;
4051;SDS011;2040;50.924;11.604;2022-10-01T12:29:16;0.60;;;0.57;;
4051;SDS011;2040;50.924;11.604;2022-10-01T12:37:39;0.50;;;0.50;;
4051;SDS011;2040;50.924;11.604;2022-10-01T12:40:20;1.17;;;0.63;;
4051;SDS011;2040;50.924;11.604;2022-10-01T12:42:59;0.90;;;0.57;;
4051;SDS011;2040;50.924;11.604;2022-10-01T12:46:11;1.90;;;0.73;;
4051;SDS011;2040;50.924;11.604;2022-10-01T12:49:03;0.50;;;0.50;;
4051;SDS011;2040;50.924;11.604;2022-10-01T13:13:27;0.60;;;0.60;;
4051;SDS011;2040;50.924;11.604;2022-10-01T13:19:01;0.60;;;0.60;;
4051;SDS011;2040;50.924;11.604;2022-10-01T13:21:43;1.23;;;0.80;;
4051;SDS011;2040;50.924;11.604;2022-10-01T13:24:40;0.67;;;0.67;;
4051;SDS011;2040;50.924;11.604;2022-10-01T13:27:26;0.83;;;0.60;;
4051;SDS011;2040;50.924;11.604;2022-10-01T13:32:57;0.90;;;0.60;;
4051;SDS011;2040;50.924;11.604;2022-10-01T13:35:39;2.77;;;0.77;;
4051;SDS011;2040;50.924;11.604;2022-10-01T13:38:25;0.60;;;0.60;;
4051;SDS011;2040;50.924;11.604;2022-10-01T13:41:05;0.70;;;0.70;;
4051;SDS011;2040;50.924;11.604;2022-10-01T13:49:19;1.00;;;0.80;;
4051;SDS011;2040;50.924;11.604;2022-10-01T13:51:50;0.70;;;0.70;;
4051;SDS011;2040;50.924;11.604;2022-10-01T13:54:32;5.53;;;0.90;;
4051;SDS011;2040;50.924;11.604;2022-10-01T13:57:19;1.23;;;1.07;;
4051;SDS011;2040;50.924;11.604;2022-10-01T14:00:20;1.00;;;0.80;;
4051;SDS011;2040;50.924;11.604;2022-10-01T14:05:28;0.80;;;0.80;;
4051;SDS011;2040;50.924;11.604;2022-10-01T14:08:03;1.10;;;1.00;;
4051;SDS011;2040;50.924;11.604;2022-10-01T14:10:41;1.70;;;1.03;;
4051;SDS011;2040;50.924;11.604;2022-10-01T14:13:28;2.47;;;1.10;;
4051;SDS011;2040;50.924;11.604;2022-10-01T14:16:14;0.87;;;0.80;;
4051;SDS011;2040;50.924;11.604;2022-10-01T14:18:41;1.00;;;0.90;;
4051;SDS011;2040;50.924;11.604;2022-10-01T14:27:57;1.10;;;0.83;;
4051;SDS011;2040;50.924;11.604;2022-10-01T14:30:12;1.67;;;0.60;;
4051;SDS011;2040;50.924;11.604;2022-10-01T14:32:50;0.77;;;0.70;;
4051;SDS011;2040;50.924;11.604;2022-10-01T14:38:03;0.93;;;0.80;;
4051;SDS011;2040;50.924;11.604;2022-10-01T14:40:37;0.83;;;0.70;;
4051;SDS011;2040;50.924;11.604;2022-10-01T14:43:28;0.80;;;0.70;;
4051;SDS011;2040;50.924;11.604;2022-10-01T14:45:56;4.63;;;0.57;;
4051;SDS011;2040;50.924;11.604;2022-10-01T14:48:24;1.13;;;0.60;;
4051;SDS011;2040;50.924;11.604;2022-10-01T14:50:54;0.70;;;0.70;;
4051;SDS011;2040;50.924;11.604;2022-10-01T14:53:22;0.80;;;0.60;;
4051;SDS011;2040;50.924;11.604;2022-10-01T14:55:54;0.87;;;0.63;;
4051;SDS011;2040;50.924;11.604;2022-10-01T14:58:27;0.50;;;0.50;;
4051;SDS011;2040;50.924;11.604;2022-10-01T15:00:56;0.70;;;0.63;;
4051;SDS011;2040;50.924;11.604;2022-10-01T15:03:23;1.63;;;0.60;;
4051;SDS011;2040;50.924;11.604;2022-10-01T15:05:49;0.63;;;0.63;;
4051;SDS011;2040;50.924;11.604;2022-10-01T15:08:20;0.70;;;0.70;;
4051;SDS011;2040;50.924;11.604;2022-10-01T15:10:58;0.97;;;0.80;;
4051;SDS011;2040;50.924;11.604;2022-10-01T15:13:37;0.60;;;0.60;;
4051;SDS011;2040;50.924;11.604;2022-10-01T15:16:10;4.43;;;1.10;;
4051;SDS011;2040;50.924;11.604;2022-10-01T15:18:40;1.20;;;0.60;;
4051;SDS011;2040;50.924;11.604;2022-10-01T15:21:11;1.13;;;0.90;;
4051;SDS011;2040;50.924;11.604;2022-10-01T15:23:42;1.17;;;0.87;;
4051;SDS011;2040;50.924;11.604;2022-10-01T15:26:08;0.83;;;0.80;;
4051;SDS011;2040;50.924;11.604;2022-10-01T15:28:37;1.33;;;0.90;;
4051;SDS011;2040;50.924;11.604;2022-10-01T15:31:04;2.80;;;0.90;;
4051;SDS011;2040;50.924;11.604;2022-10-01T15:33:37;1.83;;;1.07;;
4051;SDS011;2040;50.924;11.604;2022-10-01T15:36:06;0.90;;;0.70;;
4051;SDS011;2040;50.924;11.604;2022-10-01T15:38:36;0.70;;;0.70;;
4051;SDS011;2040;50.924;11.604;2022-10-01T15:41:04;0.70;;;0.70;;
4051;SDS011;2040;50.924;11.604;2022-10-01T15:46:09;1.23;;;1.00;;
4051;SDS011;2040;50.924;11.604;2022-10-01T15:54:35;3.83;;;0.90;;
4051;SDS011;2040;50.924;11.604;2022-10-01T15:57:04;4.87;;;0.90;;
4051;SDS011;2040;50.924;11.604;2022-10-01T15:59:30;1.13;;;1.03;;
4051;SDS011;2040;50.924;11.604;2022-10-01T16:01:58;1.10;;;0.93;;
4051;SDS011;2040;50.924;11.604;2022-10-01T16:04:24;1.00;;;1.00;;
4051;SDS011;2040;50.924;11.604;2022-10-01T16:06:50;3.03;;;1.43;;
4051;SDS011;2040;50.924;11.604;2022-10-01T16:14:36;1.20;;;1.10;;
4051;SDS011;2040;50.924;11.604;2022-10-01T16:19:41;1.00;;;0.90;;
4051;SDS011;2040;50.924;11.604;2022-10-01T16:22:14;3.57;;;1.20;;
4051;SDS011;2040;50.924;11.604;2022-10-01T16:24:50;1.17;;;1.00;;
4051;SDS011;2040;50.924;11.604;2022-10-01T16:27:26;2.23;;;1.23;;
4051;SDS011;2040;50.924;11.604;2022-10-01T16:32:25;1.07;;;1.00;;
4051;SDS011;2040;50.924;11.604;2022-10-01T16:35:08;2.97;;;1.00;;
4051;SDS011;2040;50.924;11.604;2022-10-01T16:37:39;1.60;;;1.17;;
4051;SDS011;2040;50.924;11.604;2022-10-01T16:40:04;5.90;;;1.10;;
4051;SDS011;2040;50.924;11.604;2022-10-01T16:42:30;1.33;;;1.00;;
4051;SDS011;2040;50.924;11.604;2022-10-01T16:44:58;2.03;;;1.40;;
4051;SDS011;2040;50.924;11.604;2022-10-01T16:47:23;1.00;;;0.90;;
4051;SDS011;2040;50.924;11.604;2022-10-01T16:49:49;1.17;;;1.10;;
4051;SDS011;2040;50.924;11.604;2022-10-01T16:52:16;1.47;;;1.20;;
4051;SDS011;2040;50.924;11.604;2022-10-01T16:54:42;1.60;;;1.30;;
4051;SDS011;2040;50.924;11.604;2022-10-01T16:57:08;1.23;;;0.97;;
4051;SDS011;2040;50.924;11.604;2022-10-01T16:59:35;9.47;;;1.70;;
4051;SDS011;2040;50.924;11.604;2022-10-01T17:02:03;5.50;;;2.30;;
4051;SDS011;2040;50.924;11.604;2022-10-01T17:04:28;1.93;;;1.40;;
4051;SDS011;2040;50.924;11.604;2022-10-01T17:06:57;2.10;;;1.57;;
4051;SDS011;2040;50.924;11.604;2022-10-01T17:09:23;5.20;;;1.80;;
4051;SDS011;2040;50.924;11.604;2022-10-01T17:11:48;2.23;;;1.60;;
4051;SDS011;2040;50.924;11.604;2022-10-01T17:14:15;3.00;;;1.37;;
4051;SDS011;2040;50.924;11.604;2022-10-01T17:16:42;2.03;;;1.80;;
4051;SDS011;2040;50.924;11.604;2022-10-01T17:19:09;2.23;;;1.60;;
4051;SDS011;2040;50.924;11.604;2022-10-01T17:21:36;2.83;;;2.03;;
4051;SDS011;2040;50.924;11.604;2022-10-01T17:24:02;2.63;;;2.13;;
4051;SDS011;2040;50.924;11.604;2022-10-01T17:26:27;2.50;;;1.67;;
4051;SDS011;2040;50.924;11.604;2022-10-01T17:28:53;2.30;;;1.30;;
4051;SDS011;2040;50.924;11.604;2022-10-01T17:31:18;1.43;;;1.30;;
4051;SDS011;2040;50.924;11.604;2022-10-01T17:33:44;3.53;;;1.47;;
4051;SDS011;2040;50.924;11.604;2022-10-01T17:36:10;1.63;;;1.20;;
4051;SDS011;2040;50.924;11.604;2022-10-01T17:38:36;4.50;;;1.70;;
4051;SDS011;2040;50.924;11.604;2022-10-01T17:41:04;4.43;;;2.33;;
4051;SDS011;2040;50.924;11.604;2022-10-01T17:43:30;4.73;;;1.50;;
4051;SDS011;2040;50.924;11.604;2022-10-01T17:45:56;1.33;;;1.10;;
4051;SDS011;2040;50.924;11.604;2022-10-01T17:48:27;1.60;;;1.23;;
4051;SDS011;2040;50.924;11.604;2022-10-01T17:50:57;2.07;;;1.40;;
4051;SDS011;2040;50.924;11.604;2022-10-01T17:53:28;1.40;;;1.30;;